Time;durP1;ratioP1;P1;durP2;ratioP2;P2;SDS_P1;SDS_P2;PMS_P1;PMS_P2;Temp;Humidity;BMP_temperature;BMP_pressure;BME280_temperature;BME280_humidity;BME280_pressure;Samples;Min_cycle;Max_cycle;Signal;HPM_P1;HPM_P2
2022/05/20 00:02:18;;;;;;;2.62;1.70;;;;;;;14.89;40.28;99090.53;1689167;84;25706;-58
2022/05/20 00:04:44;;;;;;;3.55;1.90;;;;;;;14.85;40.50;99091.75;1689228;85;25717;-57
2022/05/20 00:07:10;;;;;;;3.80;1.60;;;;;;;14.80;40.53;99101.02;1689439;84;25659;-60
2022/05/20 00:09:37;;;;;;;3.83;1.55;;;;;;;14.75;40.61;99089.34;1689342;84;28191;-57
2022/05/20 00:12:05;;;;;;;2.72;1.50;;;;;;;14.75;40.61;99089.34;1689218;85;25691;-57
2022/05/20 00:14:35;;;;;;;2.47;1.47;;;;;;;14.67;40.62;99082.16;1689253;84;25684;-58
2022/05/20 00:17:04;;;;;;;3.92;1.35;;;;;;;14.76;40.60;99088.19;1689208;84;25738;-59
2022/05/20 00:19:29;;;;;;;3.98;1.30;;;;;;;14.77;40.51;99078.20;1688822;85;25446;-58
2022/05/20 00:21:55;;;;;;;2.98;1.50;;;;;;;14.78;40.49;99084.02;1689484;85;27536;-59
2022/05/20 00:24:21;;;;;;;4.10;1.70;;;;;;;14.79;40.48;99088.38;1689157;84;25452;-60
2022/05/20 00:26:47;;;;;;;4.37;1.80;;;;;;;14.79;40.64;99093.89;1689562;84;25614;-58
2022/05/20 00:29:13;;;;;;;3.70;2.15;;;;;;;14.77;41.13;99092.59;1689037;85;26522;-59
2022/05/20 00:31:39;;;;;;;4.12;1.85;;;;;;;14.77;41.13;99092.59;1689209;84;25516;-58
2022/05/20 00:34:05;;;;;;;2.98;1.57;;;;;;;14.75;40.88;99087.96;1689403;84;27382;-61
2022/05/20 00:36:31;;;;;;;3.95;1.92;;;;;;;14.70;40.96;99087.58;1689275;85;25706;-59
2022/05/20 00:38:57;;;;;;;4.90;2.77;;;;;;;14.65;40.92;99082.27;1689196;84;25453;-59
2022/05/20 00:41:23;;;;;;;4.50;2.47;;;;;;;14.66;40.88;99083.88;1689508;84;25698;-57
2022/05/20 00:43:51;;;;;;;5.62;2.50;;;;;;;14.65;41.06;99085.80;1689009;84;25666;-58
2022/05/20 00:46:25;;;;;;;4.85;2.42;;;;;;;14.68;40.96;99085.70;1688976;84;27592;-57
2022/05/20 00:49:11;;;;;;;4.85;1.90;;;;;;;14.68;41.05;99077.43;1689167;84;25432;-58
2022/05/20 00:51:44;;;;;;;4.05;1.60;;;;;;;14.70;41.06;99082.62;1689325;85;25474;-58
2022/05/20 00:54:19;;;;;;;4.90;2.35;;;;;;;14.71;41.09;99085.05;1689284;85;25751;-61
2022/05/20 00:57:05;;;;;;;2.98;1.92;;;;;;;14.72;41.18;99069.31;1694055;84;25598;-58
2022/05/20 00:59:35;;;;;;;4.72;1.67;;;;;;;14.65;41.19;99055.47;1701951;84;28109;-57
2022/05/20 01:02:10;;;;;;;4.92;1.72;;;;;;;14.65;41.19;99055.47;1702153;84;25498;-57
2022/05/20 01:04:37;;;;;;;4.30;1.82;;;;;;;14.73;41.52;99058.51;1702078;84;25428;-57
2022/05/20 01:07:06;;;;;;;2.90;1.70;;;;;;;14.75;41.55;99050.16;1702041;84;25787;-57
2022/05/20 01:09:35;;;;;;;4.00;1.90;;;;;;;14.77;41.61;99049.83;1702013;84;25483;-56
2022/05/20 01:12:03;;;;;;;5.25;1.57;;;;;;;14.77;41.71;99053.38;1702146;84;27621;-56
2022/05/20 01:14:29;;;;;;;3.77;1.70;;;;;;;14.79;41.68;99052.52;1701963;84;25684;-57
2022/05/20 01:16:55;;;;;;;3.05;1.92;;;;;;;14.82;41.66;99054.38;1701935;84;25676;-57
2022/05/20 01:19:36;;;;;;;4.78;1.92;;;;;;;14.83;41.68;99049.09;1701736;84;25752;-58
2022/05/20 01:22:04;;;;;;;;;;;;;;;14.83;42.06;99058.75;1701264;84;25439;-56
2022/05/20 01:24:30;;;;;;;3.83;1.90;;;;;;;14.78;42.24;99055.58;1701846;84;27368;-56
2022/05/20 01:26:56;;;;;;;6.00;2.75;;;;;;;14.76;42.20;99040.73;1701884;84;25616;-58
2022/05/20 01:29:23;;;;;;;3.87;2.70;;;;;;;14.77;42.41;99045.69;1702370;84;25705;-57
2022/05/20 01:31:49;;;;;;;3.77;2.55;;;;;;;14.76;42.35;99050.39;1673982;84;27386;-57
2022/05/20 01:34:15;;;;;;;4.87;1.60;;;;;;;14.77;42.25;99050.62;1702033;84;25468;-57
2022/05/20 01:36:40;;;;;;;3.72;1.30;;;;;;;14.77;42.25;99050.62;1702242;84;27414;-57
2022/05/20 01:39:07;;;;;;;2.60;1.37;;;;;;;14.76;42.42;99052.33;1701802;84;25798;-56
2022/05/20 01:41:59;;;;;;;2.55;1.40;;;;;;;14.76;42.52;99048.19;1701849;84;25716;-57
2022/05/20 01:44:49;;;;;;;2.17;1.30;;;;;;;14.75;42.59;99055.67;1702226;84;25858;-56
2022/05/20 01:47:30;;;;;;;2.37;1.60;;;;;;;14.73;42.46;99056.56;1702092;84;25612;-59
2022/05/20 01:50:09;;;;;;;;;;;;;;;14.72;42.48;99059.66;1704622;84;27380;-57
2022/05/20 01:52:52;;;;;;;5.15;2.40;;;;;;;14.71;42.63;99046.42;1700628;84;26087;-56
2022/05/20 01:55:27;;;;;;;4.35;1.92;;;;;;;14.63;42.95;99041.22;1702051;84;25701;-56
2022/05/20 01:58:07;;;;;;;4.03;2.00;;;;;;;14.60;42.97;99039.68;1701763;84;26696;-57
2022/05/20 02:00:36;;;;;;;4.08;2.22;;;;;;;14.57;43.28;99035.65;1702140;84;25622;-60
2022/05/20 02:03:14;;;;;;;5.65;2.27;;;;;;;14.54;43.30;99041.83;1702005;84;27463;-58
2022/05/20 02:06:04;;;;;;;4.37;2.37;;;;;;;14.51;43.37;99044.66;1697256;84;25769;-57
2022/05/20 02:08:38;;;;;;;2.58;1.60;;;;;;;14.49;43.36;99037.30;1617467;88;25732;-57
2022/05/20 02:11:14;;;;;;;2.50;1.57;;;;;;;14.44;43.62;99038.84;1616922;88;25769;-57
2022/05/20 02:13:46;;;;;;;2.00;1.60;;;;;;;14.40;43.60;99048.93;1617427;88;25471;-56
2022/05/20 02:16:26;;;;;;;2.70;1.67;;;;;;;14.36;44.08;99058.42;1617467;88;27455;-56
2022/05/20 02:19:07;;;;;;;4.47;1.70;;;;;;;14.25;44.04;99049.69;1617556;88;25506;-56
2022/05/20 02:21:39;;;;;;;9.20;2.00;;;;;;;14.25;44.04;99049.69;1617436;88;25582;-57
2022/05/20 02:24:09;;;;;;;4.40;1.80;;;;;;;14.26;44.15;99048.58;1617375;88;25764;-55
2022/05/20 02:26:40;;;;;;;4.47;3.02;;;;;;;14.22;44.45;99044.05;1617645;88;25526;-55
2022/05/20 02:29:14;;;;;;;4.62;1.90;;;;;;;14.15;44.63;99046.73;1617522;88;27535;-57
2022/05/20 02:31:46;;;;;;;5.60;1.95;;;;;;;14.11;44.69;99054.05;1617397;88;25541;-55
2022/05/20 02:34:12;;;;;;;3.08;1.87;;;;;;;14.03;45.01;99043.28;1617792;88;25647;-55
2022/05/20 02:36:40;;;;;;;5.08;2.00;;;;;;;14.04;44.97;99051.78;1617066;88;25896;-57
2022/05/20 02:39:14;;;;;;;4.78;3.40;;;;;;;14.02;45.14;99045.77;1617278;88;25662;-57
2022/05/20 02:41:35;;;;;;;9.28;5.67;;;;;;;13.96;45.50;99031.93;1616116;88;25970;-59
2022/05/20 02:44:01;;;;;;;7.30;3.10;;;;;;;13.93;45.62;99029.83;1617501;88;25699;-59
2022/05/20 02:46:28;;;;;;;3.72;2.10;;;;;;;13.92;45.72;99027.66;1700459;84;25484;-57
2022/05/20 02:48:54;;;;;;;6.70;2.90;;;;;;;13.91;45.88;99023.27;1701908;84;25695;-56
2022/05/20 02:51:19;;;;;;;4.12;2.40;;;;;;;13.91;45.90;99016.38;1702032;84;25654;-57
2022/05/20 02:53:47;;;;;;;6.97;3.70;;;;;;;13.91;45.78;99016.38;1701977;84;28191;-57
2022/05/20 02:56:13;;;;;;;5.25;2.40;;;;;;;13.92;45.59;99025.47;1701812;84;25419;-57
2022/05/20 03:04:11;;;;;;;7.72;3.42;;;;;;;13.95;45.67;99030.32;1688915;85;25641;-61
2022/05/20 03:06:44;;;;;;;9.53;3.35;;;;;;;13.96;45.68;99035.27;1688931;85;29449;-59
2022/05/20 03:09:13;;;;;;;6.58;3.20;;;;;;;13.95;46.19;99038.59;1689233;84;25582;-60
2022/05/20 03:11:41;;;;;;;7.67;3.20;;;;;;;13.93;46.03;99050.49;1689138;84;25669;-57
2022/05/20 03:14:10;;;;;;;7.55;3.08;;;;;;;13.91;46.12;99048.06;1688936;85;25709;-57
2022/05/20 03:16:38;;;;;;;7.08;2.83;;;;;;;13.92;46.14;99057.15;1689198;84;25620;-60
2022/05/20 03:19:05;;;;;;;7.10;2.90;;;;;;;13.91;46.13;99052.20;1689278;85;27449;-59
2022/05/20 03:21:33;;;;;;;4.85;2.60;;;;;;;13.92;46.16;99044.19;1689001;84;25898;-58
2022/05/20 03:24:01;;;;;;;10.40;3.05;;;;;;;13.93;46.06;99047.73;1688877;84;25526;-57
2022/05/20 03:26:29;;;;;;;6.80;2.72;;;;;;;13.96;46.05;99046.30;1688920;85;25810;-59
2022/05/20 03:28:59;;;;;;;9.98;3.25;;;;;;;13.99;46.22;99054.70;1689172;85;25656;-60
2022/05/20 03:31:24;;;;;;;6.03;2.92;;;;;;;14.02;46.30;99053.25;1688620;85;25945;-58
2022/05/20 03:33:50;;;;;;;5.83;2.50;;;;;;;14.08;46.28;99053.33;1689077;85;25449;-57
2022/05/20 03:36:16;;;;;;;3.87;2.22;;;;;;;14.13;46.33;99048.21;1689149;85;25484;-58
2022/05/20 03:38:43;;;;;;;5.08;2.45;;;;;;;14.19;46.07;99049.63;1689086;84;25706;-57
2022/05/20 03:41:10;;;;;;;6.83;2.37;;;;;;;14.29;45.97;99047.09;1689171;85;25611;-56
2022/05/20 03:43:38;;;;;;;4.72;2.10;;;;;;;14.38;45.77;99045.68;1688757;85;27493;-57
2022/05/20 03:46:04;;;;;;;4.65;2.15;;;;;;;14.45;45.67;99050.70;1688869;85;25528;-58
2022/05/20 03:48:32;;;;;;;7.97;2.05;;;;;;;14.53;45.57;99038.25;1688856;85;25662;-54
2022/05/20 03:51:14;;;;;;;6.97;2.00;;;;;;;14.64;45.20;99045.58;1689157;84;25710;-56
2022/05/20 03:53:40;;;;;;;4.33;1.77;;;;;;;14.77;44.85;99036.83;1689315;85;25669;-56
2022/05/20 03:56:08;;;;;;;4.47;1.40;;;;;;;14.91;45.12;99039.38;1688937;85;27394;-56
2022/05/20 03:58:35;;;;;;;3.67;1.57;;;;;;;15.04;44.10;99036.71;1698186;84;25941;-58
2022/05/20 04:03:47;;;;;;;4.30;1.80;;;;;;;15.32;44.06;99039.53;1701605;84;25590;-58
2022/05/20 04:06:14;;;;;;;3.90;1.77;;;;;;;15.47;44.15;99025.68;1702061;84;25578;-58
2022/05/20 04:08:40;;;;;;;5.95;2.58;;;;;;;15.56;43.79;99023.66;1701879;84;27509;-57
2022/05/20 04:11:11;;;;;;;5.55;2.22;;;;;;;15.71;43.26;99013.14;1702016;84;25787;-58
2022/05/20 04:13:42;;;;;;;4.15;1.72;;;;;;;15.84;42.50;99006.50;1701796;84;25673;-57
2022/05/20 04:16:11;;;;;;;3.45;1.82;;;;;;;15.99;42.51;99005.07;1701915;84;25799;-60
2022/05/20 04:18:38;;;;;;;3.60;2.08;;;;;;;16.15;42.30;99005.80;1701899;84;25525;-58
2022/05/20 04:21:05;;;;;;;5.10;2.27;;;;;;;16.25;42.23;99002.58;1701987;84;26828;-57
2022/05/20 04:23:32;;;;;;;4.65;2.47;;;;;;;16.38;41.72;99005.36;1701425;84;25428;-58
2022/05/20 04:25:59;;;;;;;5.12;1.70;;;;;;;16.47;42.07;99005.25;1701920;84;25592;-57
2022/05/20 04:28:25;;;;;;;2.37;1.72;;;;;;;16.60;41.98;99008.24;1701854;84;25804;-58
2022/05/20 04:30:56;;;;;;;4.87;1.80;;;;;;;16.72;41.82;99012.96;1701607;84;25440;-57
2022/05/20 04:33:24;;;;;;;5.62;1.80;;;;;;;16.85;41.18;99005.47;1701684;84;27481;-58
2022/05/20 04:35:51;;;;;;;5.35;1.75;;;;;;;16.99;40.61;99015.36;1701993;84;25431;-58
2022/05/20 04:38:17;;;;;;;5.58;1.80;;;;;;;17.14;40.87;99022.17;1702022;84;25610;-58
2022/05/20 04:40:45;;;;;;;6.62;1.95;;;;;;;17.29;41.19;99024.22;1701798;84;25735;-58
2022/05/20 04:48:46;;;;;;;5.28;2.15;;;;;;;17.63;39.80;99037.03;1701699;84;25636;-57
2022/05/20 04:51:12;;;;;;;5.45;1.92;;;;;;;17.64;40.07;99034.48;1701554;84;25640;-58
2022/05/20 04:56:24;;;;;;;3.15;1.77;;;;;;;17.65;39.65;99037.50;1701785;84;25436;-57
2022/05/20 04:58:50;;;;;;;3.62;2.10;;;;;;;17.76;39.95;99043.34;1701601;84;27429;-57
2022/05/20 05:01:17;;;;;;;5.03;2.27;;;;;;;17.87;39.36;99031.97;1701684;84;25644;-57
2022/05/20 05:03:43;;;;;;;4.37;2.00;;;;;;;18.01;39.17;99041.26;1701746;84;25626;-58
2022/05/20 05:06:11;;;;;;;7.85;2.15;;;;;;;18.12;38.40;99039.38;1701667;84;25976;-59
2022/05/20 05:08:38;;;;;;;3.72;2.12;;;;;;;18.22;38.63;99035.28;1701661;84;25590;-56
2022/05/20 05:11:05;;;;;;;4.70;2.20;;;;;;;18.34;38.78;99042.72;1701990;84;27482;-56
2022/05/20 05:13:31;;;;;;;4.58;2.10;;;;;;;18.42;38.83;99032.82;1701766;84;25464;-57
2022/05/20 05:15:58;;;;;;;6.50;2.37;;;;;;;18.51;39.42;99036.02;1701730;84;25678;-56
2022/05/20 05:18:26;;;;;;;7.70;2.10;;;;;;;18.60;38.89;99039.42;1701639;84;25701;-56
2022/05/20 05:20:53;;;;;;;6.47;2.40;;;;;;;18.62;38.51;99045.39;1701762;84;25413;-57
2022/05/20 05:23:21;;;;;;;5.30;2.22;;;;;;;18.61;38.28;99035.47;1701719;84;27478;-56
2022/05/20 05:25:48;;;;;;;5.10;2.35;;;;;;;18.62;38.68;99041.23;1702065;84;25646;-60
2022/05/20 05:28:16;;;;;;;4.20;2.05;;;;;;;18.74;39.04;99043.09;1701693;84;25628;-61
2022/05/20 05:30:46;;;;;;;5.80;1.98;;;;;;;18.84;38.73;99048.70;1701660;84;26655;-60
2022/05/20 05:33:12;;;;;;;5.50;1.95;;;;;;;18.94;37.92;99043.97;1702145;84;25629;-62
2022/05/20 05:35:39;;;;;;;4.20;1.75;;;;;;;19.10;37.92;99053.47;1701804;84;27431;-56
2022/05/20 05:38:07;;;;;;;6.03;1.90;;;;;;;19.13;37.57;99053.55;1701795;84;25627;-59
2022/05/20 05:40:33;;;;;;;3.50;1.90;;;;;;;19.13;37.88;99059.69;1701863;84;25419;-58
2022/05/20 05:43:01;;;;;;;6.00;1.55;;;;;;;19.16;38.61;99064.52;1701886;84;25729;-60
2022/05/20 05:45:31;;;;;;;3.67;1.50;;;;;;;19.30;38.61;99064.85;1702358;84;25401;-57
2022/05/20 05:48:07;;;;;;;4.43;1.70;;;;;;;19.40;37.87;99069.02;1702025;84;27495;-57
2022/05/20 05:50:38;;;;;;;3.47;1.45;;;;;;;19.51;38.44;99076.20;1701682;84;25709;-58
2022/05/20 05:53:15;;;;;;;4.37;1.57;;;;;;;19.56;37.86;99078.70;1702020;84;25493;-58
2022/05/20 05:55:45;;;;;;;6.75;1.80;;;;;;;19.66;38.29;99084.25;1700052;84;25727;-61
2022/05/20 05:58:13;;;;;;;5.00;1.70;;;;;;;19.76;38.12;99087.63;1701955;84;25665;-60
2022/05/20 06:00:41;;;;;;;4.97;1.65;;;;;;;19.79;38.19;99087.71;1701632;84;27599;-60
2022/05/20 06:03:09;;;;;;;4.75;1.72;;;;;;;19.85;38.72;99082.66;1701584;84;25608;-59
2022/05/20 06:05:36;;;;;;;4.50;1.60;;;;;;;19.87;38.00;99084.49;1701588;84;25510;-57
2022/05/20 06:08:03;;;;;;;8.53;1.70;;;;;;;19.90;38.52;99082.38;1701857;84;25918;-58
2022/05/20 06:10:31;;;;;;;8.50;2.20;;;;;;;19.97;38.23;99076.73;1702060;84;25473;-61
2022/05/20 06:12:58;;;;;;;6.87;2.87;;;;;;;20.03;38.23;99078.05;1702184;84;27489;-57
2022/05/20 06:15:26;;;;;;;2.60;1.72;;;;;;;20.07;38.25;99066.42;1701678;84;25634;-61
2022/05/20 06:17:55;;;;;;;5.45;1.65;;;;;;;20.10;38.33;99071.25;1701610;84;25723;-59
2022/05/20 06:20:24;;;;;;;3.42;1.35;;;;;;;20.17;38.57;99069.17;1702050;84;25701;-60
2022/05/20 06:22:51;;;;;;;4.97;1.50;;;;;;;20.27;38.81;99072.73;1702030;84;25419;-58
2022/05/20 06:25:19;;;;;;;4.28;1.37;;;;;;;20.33;39.04;99082.18;1673751;84;27970;-62
2022/05/20 06:27:47;;;;;;;5.87;1.40;;;;;;;20.38;38.74;99081.89;1701528;84;25671;-60
2022/05/20 06:30:18;;;;;;;5.15;1.57;;;;;;;20.43;38.90;99085.16;1701754;84;25625;-58
2022/05/20 06:32:45;;;;;;;2.27;1.37;;;;;;;20.52;39.94;99088.30;1701663;84;26038;-57
2022/05/20 06:40:47;;;;;;;2.35;1.20;;;;;;;21.40;36.82;99087.09;1701562;84;25664;-57
2022/05/20 06:43:19;;;;;;;3.27;1.40;;;;;;;21.35;36.16;99093.56;1702140;84;25780;-57
2022/05/20 06:45:49;;;;;;;2.27;1.50;;;;;;;21.24;37.69;99097.62;1701882;84;26594;-58
2022/05/20 06:48:15;;;;;;;5.67;1.60;;;;;;;21.16;37.23;99104.45;1702027;84;25452;-60
2022/05/20 06:50:42;;;;;;;6.22;1.62;;;;;;;21.11;37.52;99115.94;1702180;84;27327;-59
2022/05/20 06:53:10;;;;;;;3.83;1.35;;;;;;;21.07;37.59;99117.84;1701729;84;25586;-58
2022/05/20 06:55:37;;;;;;;3.12;1.40;;;;;;;20.99;37.72;99121.13;1701835;84;25452;-60
2022/05/20 06:58:05;;;;;;;5.58;1.47;;;;;;;20.97;38.48;99129.05;1699907;84;25959;-58
2022/05/20 07:00:32;;;;;;;3.10;1.40;;;;;;;20.99;39.25;99128.67;1688841;85;25679;-59
2022/05/20 07:02:58;;;;;;;2.92;1.30;;;;;;;21.02;38.61;99129.33;1665174;85;27477;-58
2022/05/20 07:05:27;;;;;;;3.30;1.35;;;;;;;21.03;38.18;99128.95;1688778;85;25644;-59
2022/05/20 07:07:56;;;;;;;3.98;1.47;;;;;;;21.11;38.81;99130.45;1688891;85;25700;-58
2022/05/20 07:10:23;;;;;;;3.52;1.30;;;;;;;21.13;37.56;99133.67;1688976;85;26802;-58
2022/05/20 07:12:49;;;;;;;2.52;1.40;;;;;;;21.17;37.16;99120.02;1688838;85;25986;-58
2022/05/20 07:15:16;;;;;;;5.42;1.17;;;;;;;21.21;37.23;99124.84;1688970;85;27996;-58
2022/05/20 07:17:46;;;;;;;4.03;1.30;;;;;;;21.24;36.91;99120.70;1689129;84;25465;-59
2022/05/20 07:20:13;;;;;;;2.20;1.20;;;;;;;21.30;37.33;99124.77;1688985;85;29889;-58
2022/05/20 07:22:40;;;;;;;4.40;1.62;;;;;;;21.43;36.70;99114.80;1688793;85;25686;-58
2022/05/20 07:25:08;;;;;;;5.05;1.20;;;;;;;21.59;36.91;99113.83;1689309;85;25445;-58
2022/05/20 07:27:35;;;;;;;4.42;1.47;;;;;;;21.68;36.99;99126.89;1689218;85;27331;-60
2022/05/20 07:30:01;;;;;;;3.95;1.17;;;;;;;21.81;39.05;99125.50;1689116;85;25786;-60
2022/05/20 07:32:28;;;;;;;5.03;1.40;;;;;;;21.89;37.28;99126.98;1689090;84;25612;-59
2022/05/20 07:34:55;;;;;;;3.50;1.20;;;;;;;21.89;37.29;99129.19;1689178;85;26326;-58
2022/05/20 07:37:21;;;;;;;9.00;1.70;;;;;;;21.89;37.72;99130.58;1689135;84;25673;-59
2022/05/20 07:39:48;;;;;;;2.72;1.75;;;;;;;21.85;37.77;99129.74;1688927;85;27839;-58
2022/05/20 07:42:15;;;;;;;3.72;1.62;;;;;;;21.86;36.77;99131.92;1688867;85;25427;-58
2022/05/20 07:44:41;;;;;;;4.25;1.40;;;;;;;21.94;36.86;99120.47;1688892;85;25630;-58
2022/05/20 07:47:09;;;;;;;4.25;1.62;;;;;;;22.18;37.70;99121.16;1689174;84;25747;-58
2022/05/20 07:49:36;;;;;;;5.30;1.27;;;;;;;22.34;37.30;99124.31;1689179;85;25510;-59
2022/05/20 07:55:11;;;;;;;2.67;1.40;;;;;;;22.29;36.55;99109.30;1688745;85;25409;-61
2022/05/20 07:57:40;;;;;;;3.77;1.80;;;;;;;22.19;35.93;99116.36;1688856;85;25447;-60
2022/05/20 08:00:12;;;;;;;2.67;1.60;;;;;;;22.10;36.19;99113.09;1689129;84;26643;-58
2022/05/20 08:02:37;;;;;;;6.12;1.47;;;;;;;22.02;36.29;99110.19;1688634;85;25659;-58
2022/05/20 08:05:05;;;;;;;4.72;1.60;;;;;;;21.94;37.29;99113.48;1688833;84;27399;-58
2022/05/20 08:07:36;;;;;;;8.00;1.60;;;;;;;21.97;37.14;99108.34;1689028;85;25509;-60
2022/05/20 08:10:07;;;;;;;2.83;1.60;;;;;;;21.99;37.20;99115.75;1689172;84;25714;-58
2022/05/20 08:12:34;;;;;;;3.33;1.20;;;;;;;21.94;38.19;99111.31;1688893;85;26479;-60
2022/05/20 08:15:00;;;;;;;9.08;1.57;;;;;;;21.88;38.10;99108.64;1689041;85;25603;-59
2022/05/20 08:17:27;;;;;;;2.83;1.40;;;;;;;21.89;38.45;99111.05;1689182;85;27508;-63
2022/05/20 08:19:56;;;;;;;3.35;1.55;;;;;;;21.76;38.60;99114.66;1689123;84;25503;-62
2022/05/20 08:22:23;;;;;;;3.52;1.67;;;;;;;21.76;39.13;99117.45;1688797;85;25665;-61
2022/05/20 08:24:57;;;;;;;4.62;1.30;;;;;;;21.88;39.05;99116.41;1689084;85;26276;-59
2022/05/20 08:27:27;;;;;;;2.72;1.57;;;;;;;21.92;38.88;99113.08;1689010;85;25448;-61
2022/05/20 08:29:54;;;;;;;3.02;1.40;;;;;;;21.85;39.69;99117.77;1689474;84;28100;-60
2022/05/20 08:32:21;;;;;;;3.20;1.42;;;;;;;21.92;39.92;99115.06;1689215;85;25818;-59
2022/05/20 08:34:48;;;;;;;5.00;1.42;;;;;;;21.88;39.52;99120.59;1688975;85;25593;-58
2022/05/20 08:37:17;;;;;;;9.85;1.50;;;;;;;21.78;39.26;99126.84;1689162;85;25723;-59
2022/05/20 08:39:44;;;;;;;4.10;1.30;;;;;;;21.73;39.53;99125.16;1689230;85;25617;-60
2022/05/20 08:42:18;;;;;;;3.12;1.50;;;;;;;21.78;39.46;99121.26;1689249;85;28042;-60
2022/05/20 08:44:46;;;;;;;4.45;1.27;;;;;;;21.89;40.10;99112.45;1689081;85;25639;-60
2022/05/20 08:47:23;;;;;;;2.85;1.85;;;;;;;22.09;39.62;99116.46;1688958;85;25697;-60
2022/05/20 08:50:01;;;;;;;5.35;1.55;;;;;;;22.15;39.89;99109.36;1689747;85;25626;-62
2022/05/20 08:52:27;;;;;;;5.37;1.55;;;;;;;22.28;39.18;99113.28;1665051;85;25523;-59
2022/05/20 08:54:54;;;;;;;4.37;1.75;;;;;;;22.38;40.26;99118.17;1689321;85;28254;-59
2022/05/20 08:57:32;;;;;;;4.58;1.32;;;;;;;22.53;39.17;99119.70;1689236;85;25647;-59
2022/05/20 08:59:58;;;;;;;3.08;1.47;;;;;;;22.94;40.15;99123.07;1689074;84;25432;-59
2022/05/20 09:02:25;;;;;;;3.55;1.57;;;;;;;23.55;39.96;99112.92;1689142;85;25688;-63
2022/05/20 09:04:52;;;;;;;3.40;1.40;;;;;;;24.16;37.84;99110.22;1689176;85;25635;-60
2022/05/20 09:07:21;;;;;;;3.80;1.57;;;;;;;24.63;35.52;99105.28;1689009;85;27423;-64
2022/05/20 09:09:55;;;;;;;5.30;1.30;;;;;;;24.90;36.67;99109.73;1689256;85;25674;-59
2022/05/20 09:12:38;;;;;;;5.03;1.37;;;;;;;24.89;34.42;99095.50;1687457;85;25504;-59
2022/05/20 09:18:14;;;;;;;3.20;1.35;;;;;;;24.61;35.89;99085.26;1689000;85;25468;-60
2022/05/20 09:20:51;;;;;;;3.52;1.80;;;;;;;24.86;35.20;99076.65;1677129;85;27457;-59
2022/05/20 09:23:22;;;;;;;2.52;1.32;;;;;;;25.15;36.69;99076.64;1688884;85;25662;-61
2022/05/20 09:26:09;;;;;;;4.70;1.70;;;;;;;25.53;34.26;99074.14;1689082;85;25436;-58
2022/05/20 09:28:50;;;;;;;5.03;1.52;;;;;;;25.99;34.13;99067.97;1689025;85;25804;-58
2022/05/20 09:31:37;;;;;;;4.47;2.30;;;;;;;26.61;33.45;99076.81;1689117;84;25504;-58
2022/05/20 09:34:26;;;;;;;5.97;1.70;;;;;;;27.03;33.94;99071.23;1688999;85;27489;-58
2022/05/20 09:37:17;;;;;;;5.90;2.77;;;;;;;27.49;31.45;99061.92;1689456;85;35109;-58
2022/05/20 09:39:45;;;;;;;4.08;1.50;;;;;;;27.67;30.83;99061.73;1687596;85;25472;-59
2022/05/20 09:42:28;;;;;;;2.60;1.40;;;;;;;27.98;31.41;99060.94;1689289;85;25717;-60
2022/05/20 09:44:59;;;;;;;5.87;1.50;;;;;;;28.35;29.91;99052.15;1689315;85;25651;-58
2022/05/20 09:47:46;;;;;;;3.05;1.32;;;;;;;28.43;31.37;99045.80;1689246;85;27315;-59
2022/05/20 09:50:35;;;;;;;6.00;1.80;;;;;;;28.68;31.64;99051.63;1688991;85;25473;-58
2022/05/20 09:53:28;;;;;;;1.90;1.27;;;;;;;29.01;30.48;99048.28;1689326;85;25637;-59
2022/05/20 09:55:59;;;;;;;1.82;1.27;;;;;;;29.42;30.08;99047.70;1688029;85;25621;-61
2022/05/20 09:58:28;;;;;;;4.50;1.40;;;;;;;29.68;29.12;99043.77;1684852;85;25473;-58
2022/05/20 10:01:05;;;;;;;3.77;1.60;;;;;;;29.79;28.52;99044.95;1700665;84;27607;-59
2022/05/20 10:03:46;;;;;;;4.92;1.70;;;;;;;30.11;29.86;99040.61;1700573;84;25403;-59
2022/05/20 10:06:40;;;;;;;3.77;1.30;;;;;;;30.58;28.17;99037.89;1700945;84;25665;-60
2022/05/20 10:09:34;;;;;;;3.52;1.27;;;;;;;30.96;27.67;99039.36;1702072;84;25646;-60
2022/05/20 10:12:26;;;;;;;2.60;1.20;;;;;;;31.03;27.73;99035.72;1702257;84;25599;-61
2022/05/20 10:15:25;;;;;;;3.47;1.27;;;;;;;31.15;28.24;99037.66;1701613;84;28278;-58
2022/05/20 10:18:32;;;;;;;3.17;1.30;;;;;;;31.25;28.58;99031.50;1702066;84;25743;-58
2022/05/20 10:21:19;;;;;;;4.87;1.40;;;;;;;31.51;27.51;99035.24;1701734;84;36262;-58
2022/05/20 10:24:15;;;;;;;4.78;1.60;;;;;;;31.86;27.41;99032.42;1701791;84;25736;-58
2022/05/20 10:26:52;;;;;;;2.12;1.30;;;;;;;32.21;27.41;99030.34;1700333;82;25438;-59
2022/05/20 10:32:58;;;;;;;4.87;1.60;;;;;;;32.64;27.83;99028.16;1701735;84;25654;-58
2022/05/20 10:35:30;;;;;;;4.37;1.77;;;;;;;32.65;26.40;99017.77;1702202;83;25486;-58
2022/05/20 10:38:23;;;;;;;4.83;1.70;;;;;;;32.65;25.43;99010.68;1701737;84;25734;-58
2022/05/20 10:40:59;;;;;;;6.03;1.55;;;;;;;32.67;25.67;99001.07;1702047;84;25663;-59
2022/05/20 10:48:34;;;;;;;3.85;1.70;;;;;;;32.75;26.09;99005.09;1701818;84;27492;-58
2022/05/20 10:49:25;;;;;;;3.47;1.40;;;;;;;32.63;24.82;99007.50;1701769;84;25618;-58
2022/05/20 10:52:16;;;;;;;4.92;1.50;;;;;;;32.34;25.98;99001.35;1701859;84;26625;-60
2022/05/20 10:54:51;;;;;;;3.60;1.70;;;;;;;32.43;25.67;98999.23;1701398;84;25597;-61
2022/05/20 10:57:38;;;;;;;3.83;1.40;;;;;;;32.60;26.54;98997.69;1701227;83;28300;-61
2022/05/20 11:00:25;;;;;;;3.50;1.40;;;;;;;32.84;25.48;98982.45;1701494;84;25970;-58
2022/05/20 11:03:23;;;;;;;8.03;1.42;;;;;;;32.98;26.98;98984.63;1701618;84;25716;-59
2022/05/20 11:06:32;;;;;;;1.77;1.22;;;;;;;33.32;25.74;98979.37;1701716;84;26612;-61
2022/05/20 11:09:09;;;;;;;4.05;3.02;;;;;;;33.33;25.16;98975.27;1702046;84;25439;-60
2022/05/20 11:12:04;;;;;;;3.30;1.87;;;;;;;33.30;24.92;98979.84;1689654;84;28147;-57
2022/05/20 11:15:22;;;;;;;7.12;2.60;;;;;;;33.31;25.17;98977.15;1701998;84;25727;-61
2022/05/20 11:18:16;;;;;;;3.17;1.90;;;;;;;33.61;25.58;98969.75;1635631;87;25573;-60
2022/05/20 11:21:08;;;;;;;5.22;2.10;;;;;;;34.10;25.88;98968.85;1635466;87;26494;-59
2022/05/20 11:23:54;;;;;;;3.05;1.85;;;;;;;34.04;24.08;98966.61;1635460;87;25718;-59
2022/05/20 11:26:51;;;;;;;5.05;1.90;;;;;;;33.96;25.20;98965.97;1635394;87;27418;-58
2022/05/20 11:29:50;;;;;;;3.75;1.60;;;;;;;33.94;25.14;98965.02;1635586;87;25560;-58
2022/05/20 11:32:40;;;;;;;4.92;1.62;;;;;;;34.18;25.41;98963.05;1613007;89;25662;-59
2022/05/20 11:35:27;;;;;;;4.05;1.60;;;;;;;34.28;25.14;98964.64;1556800;92;26659;-59
2022/05/20 11:38:19;;;;;;;5.15;1.55;;;;;;;34.53;24.29;98959.14;1557030;90;25800;-56
2022/05/20 11:41:08;;;;;;;4.12;1.75;;;;;;;34.60;25.51;98951.73;1556117;92;27581;-56
2022/05/20 11:44:26;;;;;;;4.62;1.92;;;;;;;34.75;24.42;98949.08;1556250;92;26148;-59
2022/05/20 11:47:44;;;;;;;4.65;1.62;;;;;;;34.96;25.09;98945.09;1524780;94;25903;-58
2022/05/20 11:50:56;;;;;;;4.70;2.30;;;;;;;35.19;23.17;98944.95;1508401;92;25823;-58
2022/05/20 11:53:51;;;;;;;5.65;2.52;;;;;;;35.08;25.13;98947.60;1532456;93;25804;-57
2022/05/20 11:56:28;;;;;;;8.90;2.80;;;;;;;35.38;24.69;98949.95;1514458;94;27412;-61
2022/05/20 11:59:19;;;;;;;5.35;3.12;;;;;;;35.23;23.16;98939.86;1519733;94;26003;-57
2022/05/20 12:01:50;;;;;;;5.53;2.58;;;;;;;34.90;24.13;98936.41;1520583;94;25795;-60
2022/05/20 12:04:21;;;;;;;4.50;2.02;;;;;;;35.26;25.43;98933.98;1524196;94;25825;-57
2022/05/20 12:06:57;;;;;;;4.53;2.02;;;;;;;35.45;23.77;98931.73;1538336;92;25821;-62
2022/05/20 12:09:43;;;;;;;4.15;2.12;;;;;;;35.68;23.61;98932.28;1546428;92;27471;-58
2022/05/20 12:12:29;;;;;;;4.90;2.50;;;;;;;35.53;23.23;98938.03;1544609;92;25731;-57
2022/05/20 12:15:25;;;;;;;4.80;1.92;;;;;;;35.22;23.75;98933.37;1542520;93;25596;-58
2022/05/20 12:17:53;;;;;;;2.33;1.50;;;;;;;35.23;23.63;98926.39;1542673;93;26386;-57
2022/05/20 12:26:07;;;;;;;3.92;1.70;;;;;;;35.57;24.03;98922.82;1560204;92;25851;-57
2022/05/20 12:28:37;;;;;;;4.03;1.40;;;;;;;35.79;23.33;98926.86;1629535;87;25695;-58
2022/05/20 12:31:15;;;;;;;3.65;1.60;;;;;;;35.68;23.22;98917.38;1643372;87;25718;-57
2022/05/20 12:34:05;;;;;;;3.35;1.35;;;;;;;35.55;23.71;98913.33;1643284;87;25509;-59
2022/05/20 12:36:43;;;;;;;3.42;1.67;;;;;;;35.81;24.02;98922.09;1643047;87;27527;-60
2022/05/20 12:39:14;;;;;;;4.53;1.50;;;;;;;36.16;23.17;98918.72;1642957;87;25702;-56
2022/05/20 12:41:46;;;;;;;2.02;1.50;;;;;;;36.45;22.86;98911.56;1642789;87;25719;-57
2022/05/20 12:44:23;;;;;;;2.55;1.37;;;;;;;36.61;23.28;98910.31;1643514;87;25755;-56